createdAt,value
2023-01-21T00:02:42.743Z,98080.13
2023-01-21T00:07:48.767Z,98079.41
2023-01-21T00:12:53.458Z,98071.59
2023-01-21T00:17:57.954Z,98068.81
2023-01-21T00:23:03.975Z,98072.44
2023-01-21T00:28:08.815Z,98073.88
2023-01-21T00:33:13.436Z,98074.78
2023-01-21T00:38:20.410Z,98067.78
2023-01-21T00:43:25.226Z,98079.69
2023-01-21T00:48:30.055Z,98074.53
2023-01-21T00:53:38.189Z,98077.22
2023-01-21T00:58:44.316Z,98076.19
2023-01-21T01:03:51.005Z,98072.91
2023-01-21T01:08:58.517Z,98073.63
2023-01-21T01:14:03.447Z,98080.28
2023-01-21T01:19:07.498Z,98089.69
2023-01-21T01:24:13.169Z,98086.22
2023-01-21T01:29:18.626Z,98088.31
2023-01-21T01:34:23.500Z,98083.88
2023-01-21T01:39:29.357Z,98089.94
2023-01-21T01:44:58.237Z,98081.56
2023-01-21T01:50:07.339Z,98085.84
2023-01-21T01:55:15.567Z,98084.13
2023-01-21T02:00:21.744Z,98074.16
2023-01-21T02:05:26.345Z,98077.44
2023-01-21T02:10:34.435Z,98068.94
2023-01-21T02:15:49.143Z,98059.38
2023-01-21T02:21:25.544Z,98060.56
2023-01-21T02:27:15.914Z,98051.56
2023-01-21T02:33:14.310Z,98053.75
2023-01-21T02:38:27.816Z,98046.88
2023-01-21T02:43:44.425Z,98040.31
2023-01-21T02:48:59.229Z,98032.97
2023-01-21T02:54:18.121Z,98035.06
2023-01-21T02:59:22.634Z,98041.13
2023-01-21T03:04:39.737Z,98038.69
2023-01-21T03:09:44.114Z,98038.91
2023-01-21T03:15:18.721Z,98041.91
2023-01-21T03:20:29.439Z,98036.09
2023-01-21T03:25:36.269Z,98021.44
2023-01-21T03:30:46.388Z,98004.84
2023-01-21T03:35:55.871Z,98001.81
2023-01-21T03:41:06.522Z,98002.75
2023-01-21T03:46:17.536Z,98013.31
2023-01-21T03:51:28.883Z,98008.88
2023-01-21T03:56:33.776Z,98009.94
2023-01-21T04:01:39.566Z,98024.13
2023-01-21T04:06:45.362Z,98027.13
2023-01-21T04:11:49.828Z,98035.75
2023-01-21T04:16:53.899Z,98028.28
2023-01-21T04:22:00.061Z,98034.81
2023-01-21T04:27:05.040Z,98033.91
2023-01-21T04:32:09.679Z,98043.22
2023-01-21T04:37:15.939Z,98043.94
2023-01-21T04:42:20.776Z,98042.59
2023-01-21T04:47:25.777Z,98033.69
2023-01-21T04:52:31.818Z,98040.75
2023-01-21T04:57:37.204Z,98042.50
2023-01-21T05:02:41.696Z,98043.22
2023-01-21T05:07:48.264Z,98048.53
2023-01-21T05:12:52.821Z,98037.97
2023-01-21T05:17:57.518Z,98047.16
2023-01-21T05:23:04.588Z,98044.63
2023-01-21T05:28:09.859Z,98042.06
2023-01-21T05:33:14.541Z,98039.59
2023-01-21T05:38:20.466Z,98031.81
2023-01-21T05:43:25.081Z,98024.84
2023-01-21T05:48:30.247Z,98033.69
2023-01-21T05:53:36.139Z,98040.66
2023-01-21T05:58:41.019Z,98035.53
2023-01-21T06:03:45.475Z,98036.94
2023-01-21T06:08:51.546Z,98024.13
2023-01-21T06:13:56.247Z,98026.50
2023-01-21T06:19:00.999Z,98024.06
2023-01-21T06:24:07.927Z,98022.50
2023-01-21T06:29:12.465Z,98029.25
2023-01-21T06:34:16.913Z,98030.91
2023-01-21T06:39:22.800Z,98037.31
2023-01-21T06:44:27.558Z,98035.47
2023-01-21T06:49:31.856Z,98040.06
2023-01-21T06:54:38.000Z,98039.03
2023-01-21T06:59:43.043Z,98049.38
2023-01-21T07:04:50.143Z,98041.59
2023-01-21T07:09:56.072Z,98047.31
2023-01-21T07:15:00.261Z,98053.38
2023-01-21T07:20:05.609Z,98049.16
2023-01-21T07:25:12.094Z,98050.88
2023-01-21T07:30:21.344Z,98057.78
2023-01-21T07:35:25.595Z,98062.13
2023-01-21T07:40:31.912Z,98056.09
2023-01-21T07:45:36.307Z,98055.31
2023-01-21T07:50:40.844Z,98060.66
2023-01-21T07:55:46.559Z,98063.84
2023-01-21T08:00:51.426Z,98081.31
2023-01-21T08:05:55.836Z,98068.28
2023-01-21T08:11:01.952Z,98081.47
2023-01-21T08:16:07.651Z,98079.63
2023-01-21T08:21:12.196Z,98076.59
2023-01-21T08:26:18.231Z,98083.81
2023-01-21T08:31:22.912Z,98079.06
2023-01-21T08:36:27.423Z,98082.69
2023-01-21T08:41:33.364Z,98077.44
2023-01-21T08:46:37.621Z,98086.72
2023-01-21T08:51:42.622Z,98085.13
2023-01-21T08:56:48.496Z,98092.34
2023-01-21T09:01:52.791Z,98098.34
2023-01-21T09:06:57.399Z,98091.31
2023-01-21T09:12:03.076Z,98085.03
2023-01-21T09:17:07.673Z,98089.69
2023-01-21T09:22:14.003Z,98087.03
2023-01-21T09:27:20.980Z,98088.06
2023-01-21T09:32:26.108Z,98083.69
2023-01-21T09:37:34.688Z,98086.16
2023-01-21T09:42:42.866Z,98090.44
2023-01-21T09:47:51.007Z,98095.91
2023-01-21T09:53:02.671Z,98101.03
2023-01-21T09:58:25.088Z,98100.66
2023-01-21T10:03:40.340Z,98105.44
2023-01-21T10:09:20.599Z,98108.47
2023-01-21T10:14:52.273Z,98103.59
2023-01-21T10:20:07.536Z,98121.97
2023-01-21T10:25:28.842Z,98120.75
2023-01-21T10:30:40.522Z,98109.22
2023-01-21T10:36:20.767Z,98110.06
2023-01-21T10:42:16.369Z,98109.25
2023-01-21T10:47:34.234Z,98118.25
2023-01-21T10:52:47.418Z,98115.81
2023-01-21T10:57:59.950Z,98112.19
2023-01-21T11:03:15.611Z,98113.13
2023-01-21T11:08:24.611Z,98108.22
2023-01-21T11:13:29.426Z,98096.22
2023-01-21T11:18:39.202Z,98098.19
2023-01-21T11:23:43.471Z,98099.25
2023-01-21T11:28:47.962Z,98099.16
2023-01-21T11:33:54.165Z,98089.44
2023-01-21T11:39:03.701Z,98091.56
2023-01-21T11:44:18.595Z,98089.22
2023-01-21T11:49:28.618Z,98103.22
2023-01-21T11:54:40.516Z,98097.97
2023-01-21T11:59:49.084Z,98089.91
2023-01-21T12:05:00.809Z,98082.22
2023-01-21T12:10:24.300Z,98090.59
2023-01-21T12:15:46.480Z,98097.59
2023-01-21T12:21:00.917Z,98110.25
2023-01-21T12:26:21.875Z,98109.88
2023-01-21T12:31:33.005Z,98106.03
2023-01-21T12:36:46.208Z,98107.31
2023-01-21T12:42:02.662Z,98119.78
2023-01-21T12:47:19.463Z,98123.31
2023-01-21T12:52:34.749Z,98125.63
2023-01-21T12:57:45.758Z,98129.03
2023-01-21T13:03:09.823Z,98128.66
2023-01-21T13:08:42.083Z,98134.72
2023-01-21T13:13:58.602Z,98137.06
2023-01-21T13:19:03.370Z,98141.72
2023-01-21T13:24:18.399Z,98152.28
2023-01-21T13:29:38.999Z,98168.38
2023-01-21T13:34:55.205Z,98175.47
2023-01-21T13:40:26.995Z,98182.03
2023-01-21T13:45:48.427Z,98195.00
2023-01-21T13:51:16.624Z,98213.22
2023-01-21T13:56:40.586Z,98224.41
2023-01-21T14:01:50.591Z,98230.00
2023-01-21T14:07:00.648Z,98252.09
2023-01-21T14:12:15.094Z,98241.72
2023-01-21T14:17:49.897Z,98251.97
2023-01-21T14:23:24.069Z,98265.31
2023-01-21T14:28:39.809Z,98262.25
2023-01-21T14:33:48.843Z,98272.28
2023-01-21T14:39:04.649Z,98272.72
2023-01-21T14:44:37.881Z,98277.72
2023-01-21T14:49:45.537Z,98281.31
2023-01-21T14:54:50.439Z,98283.31
2023-01-21T15:00:21.573Z,98290.69
2023-01-21T15:05:31.399Z,98295.47
2023-01-21T15:10:40.158Z,98308.13
2023-01-21T15:16:12.981Z,98317.91
2023-01-21T15:21:38.059Z,98324.28
2023-01-21T15:26:42.386Z,98331.88
2023-01-21T15:31:48.403Z,98339.84
2023-01-21T15:36:58.074Z,98343.47
2023-01-21T15:42:19.210Z,98353.03
2023-01-21T15:47:55.497Z,98355.81
2023-01-21T15:53:34.259Z,98364.19
2023-01-21T15:58:55.538Z,98370.03
2023-01-21T16:04:26.417Z,98369.19
2023-01-21T16:09:42.586Z,98389.97
2023-01-21T16:15:03.241Z,98400.78
2023-01-21T16:20:12.613Z,98417.72
2023-01-21T16:25:22.212Z,98430.03
2023-01-21T16:30:30.987Z,98438.63
2023-01-21T16:35:50.299Z,98434.13
2023-01-21T16:41:25.301Z,98438.22
2023-01-21T16:46:34.616Z,98456.25
2023-01-21T16:51:45.188Z,98459.97
2023-01-21T16:56:52.107Z,98469.44
2023-01-21T17:01:58.333Z,98476.38
2023-01-21T17:07:05.833Z,98470.63
2023-01-21T17:12:28.222Z,98484.06
2023-01-21T17:17:37.119Z,98491.16
2023-01-21T17:22:44.414Z,98509.03
2023-01-21T17:27:49.730Z,98507.41
2023-01-21T17:32:56.752Z,98518.53
2023-01-21T17:38:05.420Z,98520.38
2023-01-21T17:43:22.540Z,98528.78
2023-01-21T17:48:31.272Z,98530.88
2023-01-21T17:53:42.941Z,98542.97
2023-01-21T17:58:51.930Z,98546.50
2023-01-21T18:03:56.778Z,98557.88
2023-01-21T18:09:03.888Z,98562.28
2023-01-21T18:14:12.161Z,98581.00
2023-01-21T18:19:32.164Z,98591.47
2023-01-21T18:24:38.557Z,98600.94
2023-01-21T18:29:43.719Z,98604.53
2023-01-21T18:34:47.864Z,98618.38
2023-01-21T18:39:53.367Z,98619.31
2023-01-21T18:44:57.815Z,98629.81
2023-01-21T18:50:03.722Z,98639.25
2023-01-21T18:55:11.373Z,98642.75
2023-01-21T19:00:24.181Z,98643.88
2023-01-21T19:05:33.997Z,98657.22
2023-01-21T19:10:40.091Z,98666.06
2023-01-21T19:15:45.358Z,98664.09
2023-01-21T19:20:50.086Z,98681.28
2023-01-21T19:25:57.189Z,98688.25
2023-01-21T19:31:02.312Z,98689.38
2023-01-21T19:36:16.157Z,98695.03
2023-01-21T19:41:22.307Z,98700.78
2023-01-21T19:46:29.083Z,98701.91
2023-01-21T19:51:33.990Z,98712.28
2023-01-21T19:56:39.981Z,98706.22
2023-01-21T20:01:45.668Z,98718.00
2023-01-21T20:06:50.361Z,98727.38
2023-01-21T20:11:56.574Z,98730.47
2023-01-21T20:17:02.893Z,98743.97
2023-01-21T20:22:07.820Z,98749.41
2023-01-21T20:27:15.620Z,98747.75
2023-01-21T20:32:20.828Z,98753.53
2023-01-21T20:37:26.073Z,98770.06
2023-01-21T20:42:32.132Z,98783.03
2023-01-21T20:47:38.484Z,98776.16
2023-01-21T20:52:43.513Z,98790.41
2023-01-21T20:57:49.329Z,98786.31
2023-01-21T21:02:55.642Z,98806.66
2023-01-21T21:08:00.604Z,98808.28
2023-01-21T21:13:07.780Z,98809.97
2023-01-21T21:18:14.504Z,98813.81
2023-01-21T21:23:18.773Z,98826.53
2023-01-21T21:28:24.381Z,98827.19
2023-01-21T21:33:28.853Z,98833.06
2023-01-21T21:38:33.588Z,98829.84
2023-01-21T21:43:42.194Z,98825.31
2023-01-21T21:48:46.694Z,98828.56
2023-01-21T21:53:51.787Z,98846.09
2023-01-21T21:58:57.677Z,98839.56
2023-01-21T22:04:03.187Z,98849.44
2023-01-21T22:09:09.900Z,98860.25
2023-01-21T22:14:15.948Z,98867.78
2023-01-21T22:19:20.277Z,98870.91
2023-01-21T22:24:24.718Z,98872.84
2023-01-21T22:29:30.625Z,98883.53
2023-01-21T22:34:35.483Z,98889.06
2023-01-21T22:39:39.967Z,98885.97
2023-01-21T22:44:46.033Z,98888.34
2023-01-21T22:49:50.926Z,98880.81
2023-01-21T22:54:55.600Z,98895.19
2023-01-21T23:00:02.417Z,98896.50
2023-01-21T23:05:07.688Z,98910.19
2023-01-21T23:11:04.025Z,98905.31
2023-01-21T23:16:12.279Z,98903.28
2023-01-21T23:21:19.546Z,98910.09
2023-01-21T23:26:24.377Z,98904.94
2023-01-21T23:31:30.023Z,98915.47
2023-01-21T23:36:34.647Z,98921.34
2023-01-21T23:41:39.186Z,98919.69
2023-01-21T23:46:45.335Z,98927.31
2023-01-21T23:51:49.993Z,98935.91
2023-01-21T23:56:56.239Z,98927.13
